createdAt,value
2022-12-18T00:02:00.309Z,17.48
2022-12-18T00:04:28.381Z,12.45
2022-12-18T00:06:55.594Z,17.58
2022-12-18T00:09:24.814Z,13.55
2022-12-18T00:11:55.151Z,12.48
2022-12-18T00:14:22.377Z,15.82
2022-12-18T00:16:52.640Z,17.52
2022-12-18T00:19:19.900Z,20.13
2022-12-18T00:21:46.994Z,17.02
2022-12-18T00:24:14.218Z,17.90
2022-12-18T00:26:41.547Z,20.58
2022-12-18T00:29:11.885Z,17.17
2022-12-18T00:31:39.720Z,15.85
2022-12-18T00:34:06.958Z,19.00
2022-12-18T00:36:35.297Z,15.43
2022-12-18T00:39:03.531Z,14.65
2022-12-18T00:41:50.269Z,17.00
2022-12-18T00:44:19.118Z,11.10
2022-12-18T00:46:49.547Z,13.25
2022-12-18T00:49:18.796Z,17.08
2022-12-18T00:51:46.976Z,17.75
2022-12-18T00:54:14.312Z,19.25
2022-12-18T00:56:50.095Z,15.48
2022-12-18T00:59:19.035Z,14.90
2022-12-18T01:01:46.714Z,18.48
2022-12-18T01:04:14.270Z,17.88
2022-12-18T01:06:41.872Z,19.20
2022-12-18T01:09:09.079Z,19.00
2022-12-18T01:11:37.626Z,10.25
2022-12-18T01:14:05.810Z,18.10
2022-12-18T01:16:32.995Z,11.25
2022-12-18T01:19:00.276Z,16.10
2022-12-18T01:21:28.173Z,18.02
2022-12-18T01:23:56.310Z,15.15
2022-12-18T01:26:25.073Z,20.52
2022-12-18T01:28:52.463Z,13.30
2022-12-18T01:31:20.833Z,19.30
2022-12-18T01:33:48.117Z,19.17
2022-12-18T01:36:23.005Z,14.35
2022-12-18T01:38:50.929Z,12.88
2022-12-18T01:41:20.677Z,19.65
2022-12-18T01:43:56.138Z,14.55
2022-12-18T01:46:27.783Z,13.75
2022-12-18T01:49:02.414Z,17.67
2022-12-18T01:51:30.358Z,12.80
2022-12-18T01:53:59.330Z,20.05
2022-12-18T01:56:26.532Z,18.50
2022-12-18T01:59:04.470Z,12.57
2022-12-18T02:01:32.827Z,12.68
2022-12-18T02:04:22.717Z,8.07
2022-12-18T02:06:53.894Z,8.90
2022-12-18T02:09:27.831Z,12.70
2022-12-18T02:12:05.411Z,19.38
2022-12-18T02:14:42.067Z,16.40
2022-12-18T02:17:20.561Z,11.93
2022-12-18T02:20:00.430Z,16.38
2022-12-18T02:22:36.757Z,19.45
2022-12-18T02:25:33.476Z,15.55
2022-12-18T02:28:01.997Z,18.15
2022-12-18T02:30:33.345Z,17.58
2022-12-18T02:33:01.746Z,16.15
2022-12-18T02:35:32.005Z,18.15
2022-12-18T02:38:01.331Z,17.10
2022-12-18T02:40:31.633Z,18.38
2022-12-18T02:43:10.527Z,17.50
2022-12-18T02:45:38.969Z,15.60
2022-12-18T02:48:09.611Z,15.15
2022-12-18T02:50:39.675Z,12.75
2022-12-18T02:53:12.513Z,14.93
2022-12-18T02:56:00.248Z,13.93
2022-12-18T02:58:39.547Z,17.95
2022-12-18T03:01:17.723Z,14.38
2022-12-18T03:03:58.771Z,15.88
2022-12-18T03:06:31.065Z,11.90
2022-12-18T03:09:00.909Z,13.00
2022-12-18T03:14:19.114Z,13.07
2022-12-18T03:16:51.260Z,14.23
2022-12-18T03:19:20.008Z,14.82
2022-12-18T03:21:53.257Z,12.95
2022-12-18T03:24:21.531Z,16.33
2022-12-18T03:26:54.334Z,16.52
2022-12-18T03:29:29.822Z,14.65
2022-12-18T03:32:02.153Z,15.82
2022-12-18T03:34:32.592Z,16.77
2022-12-18T03:37:07.544Z,16.50
2022-12-18T03:39:36.145Z,14.85
2022-12-18T03:42:06.606Z,16.20
2022-12-18T03:44:43.679Z,14.90
2022-12-18T03:47:23.553Z,16.42
2022-12-18T03:50:14.697Z,17.65
2022-12-18T03:52:53.868Z,14.63
2022-12-18T03:55:22.817Z,12.45
2022-12-18T03:57:55.738Z,16.48
2022-12-18T04:00:23.908Z,16.67
2022-12-18T04:03:03.602Z,18.08
2022-12-18T04:05:38.274Z,13.48
2022-12-18T04:08:08.334Z,15.73
2022-12-18T04:10:39.186Z,15.40
2022-12-18T04:13:06.455Z,16.25
2022-12-18T04:15:36.000Z,17.02
2022-12-18T04:20:39.081Z,12.77
2022-12-18T04:23:06.451Z,11.50
2022-12-18T04:25:33.917Z,12.57
2022-12-18T04:28:11.765Z,12.00
2022-12-18T04:30:39.919Z,13.75
2022-12-18T04:33:11.169Z,13.35
2022-12-18T04:35:39.304Z,13.93
2022-12-18T04:38:07.785Z,13.20
2022-12-18T04:40:34.891Z,12.02
2022-12-18T04:43:03.991Z,13.77
2022-12-18T04:45:34.656Z,10.70
2022-12-18T04:48:02.274Z,13.68
2022-12-18T04:50:29.654Z,14.32
2022-12-18T04:52:57.035Z,13.80
2022-12-18T04:55:25.704Z,12.55
2022-12-18T04:57:52.822Z,11.43
2022-12-18T05:00:20.402Z,13.95
2022-12-18T05:02:47.795Z,11.93
2022-12-18T05:05:16.249Z,12.52
2022-12-18T05:07:43.365Z,11.52
2022-12-18T05:10:11.011Z,13.45
2022-12-18T05:12:58.209Z,14.18
2022-12-18T05:15:26.273Z,9.32
2022-12-18T05:17:53.607Z,12.65
2022-12-18T05:20:20.853Z,12.80
2022-12-18T05:22:48.200Z,12.90
2022-12-18T05:25:15.430Z,12.07
2022-12-18T05:27:42.720Z,11.15
2022-12-18T05:30:10.310Z,10.63
2022-12-18T05:32:37.533Z,7.43
2022-12-18T05:35:04.926Z,11.20
2022-12-18T05:37:32.087Z,11.93
2022-12-18T05:39:59.317Z,12.30
2022-12-18T05:42:26.476Z,13.38
2022-12-18T05:44:53.598Z,12.75
2022-12-18T05:47:20.805Z,9.35
2022-12-18T05:49:47.929Z,12.02
2022-12-18T05:52:15.163Z,11.73
2022-12-18T05:54:42.602Z,11.05
2022-12-18T05:57:09.888Z,11.77
2022-12-18T05:59:37.166Z,10.57
2022-12-18T06:02:04.472Z,10.02
2022-12-18T06:04:31.728Z,10.52
2022-12-18T06:06:58.834Z,11.20
2022-12-18T06:09:26.171Z,11.20
2022-12-18T06:11:53.564Z,8.50
2022-12-18T06:14:20.923Z,10.25
2022-12-18T06:16:48.057Z,9.85
2022-12-18T06:19:18.546Z,9.77
2022-12-18T06:21:45.770Z,10.70
2022-12-18T06:24:13.130Z,10.25
2022-12-18T06:26:40.439Z,10.05
2022-12-18T06:29:07.646Z,12.35
2022-12-18T06:31:35.064Z,11.98
2022-12-18T06:34:04.393Z,11.50
2022-12-18T06:36:32.105Z,10.93
2022-12-18T06:38:59.502Z,9.60
2022-12-18T06:41:27.013Z,11.27
2022-12-18T06:43:59.374Z,8.77
2022-12-18T06:46:26.915Z,10.07
2022-12-18T06:48:54.197Z,9.45
2022-12-18T06:51:22.193Z,11.40
2022-12-18T06:53:49.489Z,10.07
2022-12-18T06:56:17.001Z,10.35
2022-12-18T06:58:44.569Z,9.85
2022-12-18T07:01:14.817Z,10.70
2022-12-18T07:03:43.801Z,8.35
2022-12-18T07:06:19.570Z,8.02
2022-12-18T07:08:47.388Z,7.70
2022-12-18T07:11:14.765Z,11.82
2022-12-18T07:13:42.240Z,9.80
2022-12-18T07:16:17.103Z,10.80
2022-12-18T07:18:47.039Z,9.23
2022-12-18T07:21:17.362Z,10.68
2022-12-18T07:23:48.032Z,9.43
2022-12-18T07:26:15.777Z,11.65
2022-12-18T07:28:43.402Z,5.65
2022-12-18T07:31:15.601Z,9.80
2022-12-18T07:33:43.415Z,10.52
2022-12-18T07:36:11.255Z,9.93
2022-12-18T07:38:38.880Z,8.52
2022-12-18T07:41:07.239Z,11.00
2022-12-18T07:43:35.024Z,8.23
2022-12-18T07:46:02.261Z,8.18
2022-12-18T07:48:30.304Z,9.35
2022-12-18T07:51:03.676Z,7.82
2022-12-18T07:53:30.977Z,10.23
2022-12-18T07:56:25.433Z,9.13
2022-12-18T07:58:46.140Z,11.05
2022-12-18T08:01:15.561Z,8.82
2022-12-18T08:03:42.958Z,8.65
2022-12-18T08:06:11.254Z,9.05
2022-12-18T08:08:38.562Z,8.55
2022-12-18T08:11:06.244Z,6.25
2022-12-18T08:13:33.376Z,8.73
2022-12-18T08:16:01.813Z,10.90
2022-12-18T08:18:29.590Z,7.57
2022-12-18T08:20:57.497Z,8.05
2022-12-18T08:23:28.601Z,9.90
2022-12-18T08:25:56.028Z,7.63
2022-12-18T08:28:23.162Z,5.43
2022-12-18T08:30:53.202Z,9.25
2022-12-18T08:33:20.568Z,10.13
2022-12-18T08:35:53.627Z,10.57
2022-12-18T08:38:20.879Z,8.55
2022-12-18T08:40:48.184Z,8.02
2022-12-18T08:43:33.838Z,10.07
2022-12-18T08:46:01.066Z,11.32
2022-12-18T08:48:28.245Z,9.73
2022-12-18T08:50:59.467Z,11.02
2022-12-18T08:53:29.258Z,9.90
2022-12-18T08:55:59.867Z,8.80
2022-12-18T08:58:27.396Z,10.25
2022-12-18T09:00:54.992Z,10.57
2022-12-18T09:03:23.594Z,9.70
2022-12-18T09:05:50.882Z,10.93
2022-12-18T09:08:18.215Z,11.60
2022-12-18T09:10:46.100Z,10.90
2022-12-18T09:13:13.626Z,11.00
2022-12-18T09:15:46.168Z,8.13
2022-12-18T09:18:14.131Z,10.35
2022-12-18T09:20:41.488Z,10.20
2022-12-18T09:23:09.061Z,10.55
2022-12-18T09:25:36.855Z,8.52
2022-12-18T09:28:05.717Z,9.93
2022-12-18T09:30:35.176Z,11.88
2022-12-18T09:33:03.215Z,10.52
2022-12-18T09:35:30.950Z,10.35
2022-12-18T09:37:58.260Z,6.43
2022-12-18T09:40:26.959Z,10.85
2022-12-18T09:42:57.497Z,8.02
2022-12-18T09:45:25.623Z,11.05
2022-12-18T09:47:54.183Z,10.50
2022-12-18T09:50:36.020Z,10.70
2022-12-18T09:53:23.773Z,10.10
2022-12-18T09:55:53.131Z,8.65
2022-12-18T09:58:39.395Z,10.85
2022-12-18T10:01:40.198Z,10.32
2022-12-18T10:04:10.558Z,10.40
2022-12-18T10:06:43.189Z,8.93
2022-12-18T10:09:16.465Z,10.52
2022-12-18T10:11:43.595Z,10.18
2022-12-18T10:14:10.731Z,9.32
2022-12-18T10:16:45.766Z,11.60
2022-12-18T10:19:21.938Z,8.82
2022-12-18T10:22:08.051Z,10.85
2022-12-18T10:24:40.885Z,9.13
2022-12-18T10:27:16.250Z,8.55
2022-12-18T10:29:45.231Z,9.70
2022-12-18T10:32:19.925Z,8.98
2022-12-18T10:34:48.205Z,11.45
2022-12-18T10:37:19.579Z,9.95
2022-12-18T10:39:48.567Z,5.32
2022-12-18T10:42:20.019Z,9.77
2022-12-18T10:44:47.548Z,8.93
2022-12-18T10:47:20.126Z,10.50
2022-12-18T10:49:52.154Z,10.68
2022-12-18T10:52:22.584Z,9.45
2022-12-18T10:54:51.136Z,9.10
2022-12-18T10:57:19.991Z,8.30
2022-12-18T10:59:55.838Z,10.43
2022-12-18T11:02:36.317Z,11.00
2022-12-18T11:05:04.310Z,8.30
2022-12-18T11:07:48.930Z,11.25
2022-12-18T11:10:23.506Z,9.32
2022-12-18T11:12:50.887Z,10.25
2022-12-18T11:15:31.814Z,9.95
2022-12-18T11:17:59.252Z,8.98
2022-12-18T11:20:33.216Z,8.50
2022-12-18T11:23:05.885Z,9.15
2022-12-18T11:25:35.390Z,8.25
2022-12-18T11:28:04.458Z,8.73
2022-12-18T11:30:36.049Z,7.90
2022-12-18T11:33:17.346Z,9.93
2022-12-18T11:35:51.110Z,6.95
2022-12-18T11:38:21.670Z,8.43
2022-12-18T11:40:51.523Z,8.40
2022-12-18T11:43:22.078Z,8.70
2022-12-18T11:45:54.069Z,9.07
2022-12-18T11:48:26.605Z,11.18
2022-12-18T11:50:55.519Z,9.40
2022-12-18T11:53:24.352Z,10.35
2022-12-18T11:56:04.095Z,8.45
2022-12-18T11:58:46.553Z,9.13
2022-12-18T12:01:19.911Z,9.80
2022-12-18T12:03:50.201Z,9.98
2022-12-18T12:06:28.238Z,7.22
2022-12-18T12:08:58.481Z,5.30
2022-12-18T12:11:35.671Z,7.35
2022-12-18T12:14:06.754Z,8.85
2022-12-18T12:16:43.280Z,9.40
2022-12-18T12:19:26.003Z,9.68
2022-12-18T12:22:11.893Z,9.00
2022-12-18T12:24:49.580Z,10.15
2022-12-18T12:27:19.912Z,9.02
2022-12-18T12:29:47.571Z,6.95
2022-12-18T12:32:35.318Z,10.25
2022-12-18T12:35:17.764Z,8.90
2022-12-18T12:37:54.010Z,9.57
2022-12-18T12:43:33.305Z,11.25
2022-12-18T12:46:07.657Z,9.60
2022-12-18T12:48:42.540Z,10.20
2022-12-18T12:51:13.943Z,6.03
2022-12-18T12:53:42.679Z,8.80
2022-12-18T12:56:11.697Z,9.48
2022-12-18T12:58:46.659Z,7.53
2022-12-18T13:01:29.954Z,8.55
2022-12-18T13:04:16.758Z,9.32
2022-12-18T13:06:55.866Z,10.88
2022-12-18T13:09:25.873Z,9.48
2022-12-18T13:12:12.065Z,8.77
2022-12-18T13:14:41.051Z,9.65
2022-12-18T13:17:24.714Z,8.70
2022-12-18T13:19:51.947Z,10.50
2022-12-18T13:22:38.056Z,9.25
2022-12-18T13:25:25.359Z,8.68
2022-12-18T13:28:02.249Z,10.48
2022-12-18T13:30:37.693Z,9.75
2022-12-18T13:33:17.533Z,9.95
2022-12-18T13:35:47.815Z,9.43
2022-12-18T13:38:25.637Z,7.63
2022-12-18T13:40:56.220Z,8.15
2022-12-18T13:43:23.389Z,7.55
2022-12-18T13:46:01.335Z,9.20
2022-12-18T13:48:29.146Z,12.05
2022-12-18T13:51:04.314Z,12.73
2022-12-18T13:53:34.819Z,11.27
2022-12-18T13:58:29.260Z,8.40
2022-12-18T14:00:56.635Z,9.90
2022-12-18T14:03:26.996Z,9.07
2022-12-18T14:05:56.426Z,10.50
2022-12-18T14:08:26.338Z,10.57
2022-12-18T14:10:54.360Z,8.75
2022-12-18T14:13:30.822Z,9.48
2022-12-18T14:16:03.762Z,11.32
2022-12-18T14:18:53.855Z,8.48
2022-12-18T14:21:28.862Z,8.88
2022-12-18T14:24:21.616Z,8.77
2022-12-18T14:26:56.463Z,12.40
2022-12-18T14:29:30.882Z,9.93
2022-12-18T14:32:18.214Z,8.85
2022-12-18T14:34:50.389Z,10.00
2022-12-18T14:37:19.126Z,8.93
2022-12-18T14:39:58.011Z,8.73
2022-12-18T14:42:29.370Z,10.02
2022-12-18T14:45:15.408Z,8.30
2022-12-18T14:47:45.134Z,10.77
2022-12-18T14:50:18.910Z,7.97
2022-12-18T14:52:49.559Z,11.30
2022-12-18T14:58:29.919Z,18.73
2022-12-18T15:00:57.128Z,15.60
2022-12-18T15:03:24.505Z,10.98
2022-12-18T15:05:52.753Z,9.88
2022-12-18T15:08:40.126Z,10.65
2022-12-18T15:11:26.995Z,9.73
2022-12-18T15:13:54.258Z,8.00
2022-12-18T15:16:21.623Z,6.18
2022-12-18T15:18:48.974Z,10.02
2022-12-18T15:21:18.913Z,8.43
2022-12-18T15:23:46.163Z,10.27
2022-12-18T15:26:15.365Z,8.07
2022-12-18T15:28:52.620Z,10.02
2022-12-18T15:31:33.156Z,9.52
2022-12-18T15:34:23.616Z,9.25
2022-12-18T15:36:52.239Z,8.82
2022-12-18T15:39:19.331Z,10.35
2022-12-18T15:42:05.420Z,5.95
2022-12-18T15:44:32.558Z,8.52
2022-12-18T15:47:00.209Z,10.18
2022-12-18T15:49:27.566Z,10.68
2022-12-18T15:51:56.233Z,10.32
2022-12-18T15:54:43.340Z,10.93
2022-12-18T15:57:25.807Z,11.15
2022-12-18T15:59:54.064Z,6.63
2022-12-18T16:02:23.698Z,9.32
2022-12-18T16:04:52.413Z,10.85
2022-12-18T16:07:23.066Z,9.57
2022-12-18T16:09:52.841Z,11.20
2022-12-18T16:12:22.470Z,7.20
2022-12-18T16:14:49.822Z,10.30
2022-12-18T16:17:17.098Z,9.75
2022-12-18T16:19:44.275Z,8.55
2022-12-18T16:22:37.820Z,10.73
2022-12-18T16:25:06.192Z,9.93
2022-12-18T16:27:33.266Z,10.38
2022-12-18T16:30:00.491Z,10.45
2022-12-18T16:32:27.639Z,9.52
2022-12-18T16:34:54.916Z,10.43
2022-12-18T16:37:22.422Z,11.02
2022-12-18T16:39:49.784Z,9.43
2022-12-18T16:42:20.121Z,10.05
2022-12-18T16:47:15.787Z,7.40
2022-12-18T16:49:43.326Z,10.40
2022-12-18T16:52:10.650Z,9.35
2022-12-18T16:54:38.251Z,12.52
2022-12-18T16:57:05.946Z,6.68
2022-12-18T16:59:36.478Z,9.75
2022-12-18T17:02:03.846Z,10.43
2022-12-18T17:04:31.315Z,8.15
2022-12-18T17:06:58.672Z,12.27
2022-12-18T17:09:25.948Z,7.63
2022-12-18T17:11:54.191Z,10.63
2022-12-18T17:14:22.460Z,11.30
2022-12-18T17:16:57.915Z,10.52
2022-12-18T17:19:37.401Z,10.73
2022-12-18T17:22:05.004Z,9.68
2022-12-18T17:24:35.239Z,11.40
2022-12-18T17:27:03.102Z,11.15
2022-12-18T17:29:30.318Z,12.45
2022-12-18T17:31:57.695Z,10.35
2022-12-18T17:34:26.792Z,8.65
2022-12-18T17:36:53.938Z,10.65
2022-12-18T17:39:21.369Z,17.45
2022-12-18T17:41:49.429Z,12.32
2022-12-18T17:44:17.102Z,9.32
2022-12-18T17:46:44.434Z,11.15
2022-12-18T17:49:11.794Z,11.80
2022-12-18T17:51:42.283Z,14.07
2022-12-18T17:54:10.007Z,21.48
2022-12-18T17:56:37.125Z,11.45
2022-12-18T17:59:04.792Z,11.85
2022-12-18T18:01:32.224Z,12.23
2022-12-18T18:04:00.646Z,10.82
2022-12-18T18:06:27.846Z,10.55
2022-12-18T18:08:55.414Z,11.95
2022-12-18T18:11:55.886Z,11.75
2022-12-18T18:14:23.687Z,10.45
2022-12-18T18:16:52.619Z,9.10
2022-12-18T18:19:21.774Z,14.85
2022-12-18T18:21:50.709Z,13.75
2022-12-18T18:24:19.965Z,10.20
2022-12-18T18:26:47.216Z,11.18
2022-12-18T18:29:19.023Z,10.73
2022-12-18T18:31:46.871Z,10.80
2022-12-18T18:34:18.198Z,10.32
2022-12-18T18:36:52.383Z,12.65
2022-12-18T18:39:19.697Z,8.73
2022-12-18T18:41:48.372Z,11.77
2022-12-18T18:44:18.856Z,10.85
2022-12-18T18:46:46.141Z,11.80
2022-12-18T18:49:14.432Z,7.30
2022-12-18T18:51:42.363Z,10.82
2022-12-18T18:54:09.752Z,13.30
2022-12-18T18:57:04.163Z,13.43
2022-12-18T18:59:30.339Z,12.50
2022-12-18T19:02:00.048Z,10.68
2022-12-18T19:04:32.156Z,9.70
2022-12-18T19:06:59.444Z,9.90
2022-12-18T19:09:28.599Z,14.27
2022-12-18T19:12:14.956Z,9.18
2022-12-18T19:14:42.249Z,8.18
2022-12-18T19:17:13.366Z,13.27
2022-12-18T19:19:40.879Z,12.98
2022-12-18T19:22:09.308Z,12.75
2022-12-18T19:24:36.593Z,10.93
2022-12-18T19:27:03.941Z,13.65
2022-12-18T19:29:31.351Z,13.10
2022-12-18T19:31:58.573Z,11.63
2022-12-18T19:34:26.015Z,13.57
2022-12-18T19:36:59.415Z,13.13
2022-12-18T19:39:27.341Z,14.70
2022-12-18T19:41:54.581Z,12.95
2022-12-18T19:44:22.955Z,11.38
2022-12-18T19:46:53.308Z,12.50
2022-12-18T19:49:23.480Z,15.73
2022-12-18T19:51:50.910Z,11.80
2022-12-18T19:54:18.121Z,12.73
2022-12-18T19:56:45.845Z,14.48
2022-12-18T19:59:13.621Z,12.07
2022-12-18T20:01:41.385Z,13.43
2022-12-18T20:04:09.152Z,13.60
2022-12-18T20:06:55.884Z,12.60
2022-12-18T20:09:23.247Z,16.08
2022-12-18T20:11:51.164Z,11.60
2022-12-18T20:14:22.966Z,11.18
2022-12-18T20:16:50.900Z,14.82
2022-12-18T20:19:19.418Z,13.63
2022-12-18T20:21:46.832Z,17.08
2022-12-18T20:24:13.995Z,15.15
2022-12-18T20:26:41.438Z,16.33
2022-12-18T20:29:08.724Z,15.35
2022-12-18T20:31:36.135Z,12.30
2022-12-18T20:34:04.857Z,12.13
2022-12-18T20:36:34.232Z,11.13
2022-12-18T20:39:04.029Z,10.65
2022-12-18T20:41:38.325Z,14.25
2022-12-18T20:44:13.751Z,13.73
2022-12-18T20:46:51.710Z,17.52
2022-12-18T20:49:18.887Z,13.40
2022-12-18T20:51:46.476Z,14.32
2022-12-18T20:54:13.782Z,12.77
2022-12-18T20:56:41.003Z,13.32
2022-12-18T20:59:08.394Z,11.40
2022-12-18T21:01:35.928Z,18.27
2022-12-18T21:04:04.780Z,9.43
2022-12-18T21:06:32.344Z,15.90
2022-12-18T21:08:59.542Z,12.70
2022-12-18T21:11:47.376Z,10.88
2022-12-18T21:14:19.331Z,11.20
2022-12-18T21:16:46.687Z,15.07
2022-12-18T21:19:18.838Z,16.33
2022-12-18T21:21:46.738Z,12.85
2022-12-18T21:24:15.207Z,13.15
2022-12-18T21:26:46.461Z,16.38
2022-12-18T21:29:15.962Z,11.43
2022-12-18T21:31:44.033Z,11.82
2022-12-18T21:34:15.173Z,11.45
2022-12-18T21:36:44.985Z,14.98
2022-12-18T21:39:13.989Z,11.32
2022-12-18T21:42:00.265Z,15.80
2022-12-18T21:44:30.151Z,14.88
2022-12-18T21:47:09.372Z,13.13
2022-12-18T21:49:39.935Z,13.93
2022-12-18T21:52:10.600Z,9.48
2022-12-18T21:54:37.793Z,16.30
2022-12-18T21:57:06.057Z,15.02
2022-12-18T21:59:34.861Z,10.40
2022-12-18T22:02:03.641Z,16.95
2022-12-18T22:04:31.420Z,14.07
2022-12-18T22:07:03.771Z,9.43
2022-12-18T22:09:31.056Z,16.58
2022-12-18T22:11:58.314Z,14.48
2022-12-18T22:14:25.794Z,16.95
2022-12-18T22:16:53.359Z,13.43
2022-12-18T22:19:20.959Z,19.92
2022-12-18T22:21:49.785Z,14.57
2022-12-18T22:24:18.460Z,15.55
2022-12-18T22:26:47.473Z,14.55
2022-12-18T22:29:38.223Z,13.93
2022-12-18T22:32:06.091Z,16.05
2022-12-18T22:34:36.435Z,12.40
2022-12-18T22:39:31.430Z,14.35
2022-12-18T22:41:58.996Z,11.00
2022-12-18T22:44:26.278Z,15.38
2022-12-18T22:47:02.885Z,16.40
2022-12-18T22:49:35.869Z,13.55
2022-12-18T22:52:09.470Z,13.27
2022-12-18T22:54:37.049Z,14.80
2022-12-18T22:57:07.942Z,10.45
2022-12-18T22:59:35.290Z,16.08
2022-12-18T23:02:02.493Z,15.40
2022-12-18T23:04:32.175Z,18.50
2022-12-18T23:07:04.694Z,15.43
2022-12-18T23:09:32.173Z,13.68
2022-12-18T23:11:59.419Z,15.15
2022-12-18T23:14:26.616Z,16.35
2022-12-18T23:16:53.811Z,16.40
2022-12-18T23:19:21.249Z,17.40
2022-12-18T23:21:51.245Z,9.73
2022-12-18T23:24:18.515Z,13.90
2022-12-18T23:26:46.888Z,19.95
2022-12-18T23:29:17.250Z,13.35
2022-12-18T23:31:44.735Z,14.48
2022-12-18T23:34:13.025Z,14.10
2022-12-18T23:36:46.380Z,14.48
2022-12-18T23:39:28.685Z,14.68
2022-12-18T23:42:01.515Z,16.80
2022-12-18T23:44:28.873Z,17.63
2022-12-18T23:46:56.272Z,19.95
2022-12-18T23:49:24.125Z,12.35
2022-12-18T23:51:51.515Z,19.52
2022-12-18T23:54:23.226Z,15.70
2022-12-18T23:57:00.913Z,15.15
2022-12-18T23:59:28.097Z,14.77
